GRO weather

Girona Airport
Girona, Girona, Spain

Public forecast

Using degrees Celsius for public forecast. Weather courtesy of forecast.io.

METAR (pilot weather report)

Retrieved 2018/10/20 08:30 UTC (0 seconds ago):

LEGE 200830Z 02005KT 330V050 9999 FEW040 BKN050 18/15 Q1023

TAF (pilot weather forecast)

Retrieved 2018/10/20 06:27 UTC (2 hours ago):

TAF LEGE 200500Z 2006/2106 34006KT 9999 SCT040 TX24/2013Z TN14/2106Z TEMPO 2009/2018 03008KT